createdAt,value
2022-12-03T00:01:14.194Z,11.77
2022-12-03T00:03:40.996Z,10.32
2022-12-03T00:06:07.849Z,12.38
2022-12-03T00:08:34.968Z,12.18
2022-12-03T00:11:01.459Z,11.13
2022-12-03T00:13:28.022Z,12.38
2022-12-03T00:15:54.566Z,12.15
2022-12-03T00:18:21.116Z,13.00
2022-12-03T00:20:47.703Z,9.60
2022-12-03T00:23:14.198Z,11.75
2022-12-03T00:25:40.667Z,9.75
2022-12-03T00:28:07.669Z,10.32
2022-12-03T00:30:34.200Z,11.55
2022-12-03T00:33:00.728Z,10.65
2022-12-03T00:35:27.258Z,10.48
2022-12-03T00:37:54.690Z,11.50
2022-12-03T00:40:21.211Z,8.38
2022-12-03T00:42:47.719Z,10.38
2022-12-03T00:45:14.286Z,10.60
2022-12-03T00:47:40.776Z,8.52
2022-12-03T00:50:08.298Z,10.82
2022-12-03T00:52:34.826Z,10.95
2022-12-03T00:55:01.380Z,9.80
2022-12-03T00:57:27.898Z,12.80
2022-12-03T00:59:54.379Z,9.60
2022-12-03T01:02:21.033Z,9.00
2022-12-03T01:04:47.761Z,7.72
2022-12-03T01:07:14.489Z,7.57
2022-12-03T01:09:40.961Z,9.68
2022-12-03T01:12:07.491Z,8.90
2022-12-03T01:14:34.052Z,7.95
2022-12-03T01:17:00.570Z,7.45
2022-12-03T01:19:27.194Z,7.05
2022-12-03T01:21:54.852Z,9.15
2022-12-03T01:24:21.811Z,8.23
2022-12-03T01:26:48.437Z,7.47
2022-12-03T01:29:15.048Z,10.25
2022-12-03T01:32:00.201Z,6.00
2022-12-03T01:34:26.696Z,6.93
2022-12-03T01:36:53.220Z,6.32
2022-12-03T01:39:20.520Z,6.10
2022-12-03T01:41:48.841Z,7.40
2022-12-03T01:44:19.300Z,7.43
2022-12-03T01:46:46.662Z,6.32
2022-12-03T01:49:41.755Z,7.32
2022-12-03T01:52:17.292Z,6.80
2022-12-03T01:54:59.144Z,7.30
2022-12-03T01:57:45.130Z,6.53
2022-12-03T02:00:16.909Z,6.53
2022-12-03T02:02:43.574Z,5.72
2022-12-03T02:05:22.438Z,7.55
2022-12-03T02:07:49.302Z,6.72
2022-12-03T02:10:18.843Z,7.50
2022-12-03T02:12:52.105Z,5.07
2022-12-03T02:15:18.703Z,6.50
2022-12-03T02:17:45.443Z,4.32
2022-12-03T02:20:12.956Z,5.45
2022-12-03T02:22:59.716Z,6.07
2022-12-03T05:58:41.424Z,6.15
2022-12-03T06:01:08.384Z,5.93
2022-12-03T06:03:35.049Z,4.75
2022-12-03T06:06:02.272Z,5.25
2022-12-03T06:08:28.738Z,5.15
2022-12-03T06:10:55.204Z,5.47
2022-12-03T06:13:21.696Z,4.72
2022-12-03T06:15:48.328Z,6.07
2022-12-03T06:18:15.018Z,7.72
2022-12-03T06:20:41.485Z,6.22
2022-12-03T06:23:08.148Z,6.57
2022-12-03T06:25:34.718Z,5.30
2022-12-03T06:28:01.193Z,3.53
2022-12-03T06:30:27.760Z,5.45
2022-12-03T06:32:54.307Z,7.55
2022-12-03T06:35:20.829Z,5.20
2022-12-03T06:37:47.440Z,6.38
2022-12-03T06:40:14.230Z,6.45
2022-12-03T06:42:40.713Z,6.18
2022-12-03T06:45:07.379Z,6.20
2022-12-03T06:47:33.926Z,7.68
2022-12-03T06:50:00.561Z,5.53
2022-12-03T06:52:27.152Z,5.90
2022-12-03T06:54:53.973Z,5.65
2022-12-03T06:57:20.784Z,5.15
2022-12-03T06:59:47.314Z,6.13
2022-12-03T07:02:13.891Z,6.30
2022-12-03T07:04:44.848Z,6.22
2022-12-03T07:07:12.953Z,7.50
2022-12-03T07:09:39.460Z,6.05
2022-12-03T07:12:06.121Z,7.05
2022-12-03T07:14:32.663Z,5.20
2022-12-03T07:16:59.259Z,5.60
2022-12-03T07:19:32.079Z,7.28
2022-12-03T07:21:59.240Z,6.97
2022-12-03T07:24:25.730Z,7.18
2022-12-03T07:26:52.208Z,6.43
2022-12-03T07:29:18.819Z,5.05
2022-12-03T07:31:45.415Z,7.32
2022-12-03T07:34:12.008Z,7.57
2022-12-03T07:36:38.604Z,6.60
2022-12-03T07:39:05.378Z,5.63
2022-12-03T07:41:32.021Z,5.82
2022-12-03T07:43:58.652Z,7.03
2022-12-03T07:46:25.218Z,6.10
2022-12-03T07:48:51.755Z,5.72
2022-12-03T07:51:18.283Z,5.50
2022-12-03T07:53:44.783Z,6.40
2022-12-03T07:56:11.279Z,7.70
2022-12-03T07:58:37.964Z,6.32
2022-12-03T08:01:04.538Z,7.20
2022-12-03T08:03:31.147Z,7.13
2022-12-03T08:05:57.667Z,7.55
2022-12-03T08:08:24.200Z,6.88
2022-12-03T08:10:50.739Z,6.82
2022-12-03T08:13:18.790Z,7.22
2022-12-03T08:15:46.413Z,8.63
2022-12-03T08:18:16.493Z,7.05
2022-12-03T08:20:45.207Z,7.85
2022-12-03T08:23:22.507Z,7.70
2022-12-03T08:25:50.917Z,9.88
2022-12-03T08:28:23.015Z,7.05
2022-12-03T08:31:05.626Z,9.48
2022-12-03T08:33:35.352Z,8.00
2022-12-03T08:36:29.598Z,7.30
2022-12-03T08:39:05.275Z,9.25
2022-12-03T08:41:50.792Z,9.63
2022-12-03T08:44:27.827Z,10.07
2022-12-03T08:47:05.361Z,9.05
2022-12-03T08:49:32.273Z,9.98
2022-12-03T08:52:01.773Z,9.27
2022-12-03T08:54:28.452Z,10.98
2022-12-03T08:56:55.261Z,10.20
2022-12-03T08:59:45.385Z,9.00
2022-12-03T09:02:28.784Z,9.18
2022-12-03T09:04:55.748Z,10.93
2022-12-03T09:07:22.553Z,9.82
2022-12-03T09:09:49.260Z,11.15
2022-12-03T09:12:15.791Z,9.85
2022-12-03T09:14:42.271Z,11.90
2022-12-03T09:17:08.842Z,11.88
2022-12-03T09:19:35.465Z,9.95
2022-12-03T09:22:01.966Z,11.20
2022-12-03T09:24:28.440Z,10.20
2022-12-03T09:26:55.038Z,9.25
2022-12-03T09:29:21.539Z,9.90
2022-12-03T09:31:48.182Z,11.00
2022-12-03T09:34:14.800Z,11.38
2022-12-03T09:36:41.354Z,10.10
2022-12-03T09:39:07.932Z,10.93
2022-12-03T09:41:34.572Z,11.65
2022-12-03T09:44:04.446Z,11.25
2022-12-03T09:46:32.585Z,12.80
2022-12-03T09:49:00.580Z,13.68
2022-12-03T09:51:34.411Z,9.90
2022-12-03T09:54:04.677Z,10.52
2022-12-03T09:56:31.797Z,11.00
2022-12-03T09:58:58.610Z,11.32
2022-12-03T10:01:29.962Z,11.90
2022-12-03T10:03:56.972Z,12.30
2022-12-03T10:06:24.139Z,12.77
2022-12-03T10:08:54.452Z,9.88
2022-12-03T10:11:24.240Z,10.90
2022-12-03T10:13:51.481Z,9.57
2022-12-03T10:16:21.043Z,12.25
2022-12-03T10:18:52.146Z,11.40
2022-12-03T10:21:36.479Z,13.95
2022-12-03T10:24:19.878Z,12.02
2022-12-03T10:26:47.822Z,10.82
2022-12-03T10:29:18.110Z,9.10
2022-12-03T10:31:45.369Z,9.13
2022-12-03T10:34:12.189Z,11.38
2022-12-03T10:36:38.807Z,9.65
2022-12-03T10:39:09.731Z,11.35
2022-12-03T10:41:38.056Z,9.93
2022-12-03T11:00:44.148Z,12.65
2022-12-03T11:03:40.102Z,12.40
2022-12-03T11:06:07.044Z,10.80
2022-12-03T11:08:36.572Z,10.07
2022-12-03T11:11:26.048Z,11.98
2022-12-03T11:14:01.280Z,9.73
2022-12-03T11:16:39.936Z,11.57
2022-12-03T11:19:12.751Z,12.00
2022-12-03T15:07:45.869Z,11.35
2022-12-03T15:10:19.450Z,9.95
2022-12-03T15:12:54.079Z,10.38
2022-12-03T15:15:21.824Z,8.50
2022-12-03T15:24:20.884Z,9.13
2022-12-03T15:26:47.639Z,9.73
2022-12-03T15:29:20.664Z,8.00
2022-12-03T15:31:47.415Z,10.15
2022-12-03T15:34:46.226Z,9.55
2022-12-03T15:42:41.374Z,15.63
2022-12-03T15:45:12.053Z,9.70
2022-12-03T15:47:41.755Z,10.45
2022-12-03T15:50:08.869Z,13.48
2022-12-03T15:58:04.509Z,9.48
2022-12-03T16:00:33.624Z,12.90
2022-12-03T16:03:00.214Z,10.60
2022-12-03T16:05:27.987Z,9.65
2022-12-03T16:07:54.950Z,9.32
2022-12-03T16:10:21.561Z,11.27
2022-12-03T16:12:50.530Z,10.45
2022-12-03T16:15:20.995Z,9.48
2022-12-03T16:17:50.181Z,8.32
2022-12-03T16:20:28.960Z,13.38
2022-12-03T16:23:28.039Z,9.80
2022-12-03T16:25:58.992Z,9.45
2022-12-03T16:28:36.292Z,9.07
2022-12-03T16:31:02.888Z,9.13
2022-12-03T16:33:32.159Z,8.18
2022-12-03T16:36:35.966Z,9.30
2022-12-03T16:42:28.588Z,10.55
2022-12-03T16:45:46.415Z,9.77
2022-12-03T16:48:27.199Z,8.52
2022-12-03T16:50:54.770Z,8.48
2022-12-03T16:53:33.432Z,7.22
2022-12-03T16:56:00.316Z,7.75
2022-12-03T16:58:27.023Z,10.13
2022-12-03T17:00:54.230Z,7.50
2022-12-03T17:03:22.652Z,6.22
2022-12-03T17:05:49.561Z,6.30
2022-12-03T17:08:16.660Z,6.75
2022-12-03T17:10:44.168Z,6.72
2022-12-03T17:13:11.117Z,6.45
2022-12-03T17:15:38.661Z,7.82
2022-12-03T17:18:05.705Z,7.13
2022-12-03T17:20:33.379Z,8.65
2022-12-03T17:23:00.326Z,9.65
2022-12-03T17:25:27.700Z,7.25
2022-12-03T17:27:54.364Z,7.45
2022-12-03T17:30:20.892Z,7.88
2022-12-03T17:32:48.801Z,9.38
2022-12-03T17:35:15.361Z,8.20
2022-12-03T17:37:41.983Z,7.28
2022-12-03T17:40:10.519Z,7.97
2022-12-03T17:42:37.166Z,7.97
2022-12-03T17:45:04.076Z,8.65
2022-12-03T17:47:30.755Z,7.65
2022-12-03T17:49:57.802Z,9.30
2022-12-03T17:52:24.372Z,8.27
2022-12-03T17:57:37.403Z,8.00
2022-12-03T18:00:04.559Z,8.80
2022-12-03T18:02:31.039Z,8.25
2022-12-03T18:04:57.570Z,8.90
2022-12-03T18:07:24.093Z,6.50
2022-12-03T18:09:50.579Z,8.20
2022-12-03T18:12:17.250Z,8.13
2022-12-03T18:14:43.760Z,6.47
